sensor_id;sensor_type;location;lat;lon;timestamp;temperature;humidity
51815;DHT22;37874;53.158;6.766;2023-02-28T00:01:24;13.40;56.70
51815;DHT22;37874;53.158;6.766;2023-02-28T00:03:50;13.30;56.60
51815;DHT22;37874;53.158;6.766;2023-02-28T00:06:16;13.40;56.60
51815;DHT22;37874;53.158;6.766;2023-02-28T00:08:42;13.30;56.70
51815;DHT22;37874;53.158;6.766;2023-02-28T00:11:12;13.30;56.60
51815;DHT22;37874;53.158;6.766;2023-02-28T00:13:41;13.30;56.70
51815;DHT22;37874;53.158;6.766;2023-02-28T00:16:10;13.30;56.70
51815;DHT22;37874;53.158;6.766;2023-02-28T00:18:36;13.30;56.80
51815;DHT22;37874;53.158;6.766;2023-02-28T00:21:02;13.30;56.70
51815;DHT22;37874;53.158;6.766;2023-02-28T00:23:28;13.30;56.70
51815;DHT22;37874;53.158;6.766;2023-02-28T00:25:54;13.30;56.80
51815;DHT22;37874;53.158;6.766;2023-02-28T00:28:20;13.30;56.80
51815;DHT22;37874;53.158;6.766;2023-02-28T00:30:46;13.30;56.80
51815;DHT22;37874;53.158;6.766;2023-02-28T00:33:12;13.30;56.80
51815;DHT22;37874;53.158;6.766;2023-02-28T00:35:38;13.70;57.00
51815;DHT22;37874;53.158;6.766;2023-02-28T00:38:03;13.30;56.80
51815;DHT22;37874;53.158;6.766;2023-02-28T00:40:29;13.30;56.70
51815;DHT22;37874;53.158;6.766;2023-02-28T00:42:55;13.30;56.80
51815;DHT22;37874;53.158;6.766;2023-02-28T00:45:20;13.30;56.80
51815;DHT22;37874;53.158;6.766;2023-02-28T00:47:46;13.30;56.80
51815;DHT22;37874;53.158;6.766;2023-02-28T00:50:18;13.30;56.80
51815;DHT22;37874;53.158;6.766;2023-02-28T00:52:45;13.30;56.80
51815;DHT22;37874;53.158;6.766;2023-02-28T00:55:11;13.20;56.70
51815;DHT22;37874;53.158;6.766;2023-02-28T00:57:37;13.30;56.90
51815;DHT22;37874;53.158;6.766;2023-02-28T01:00:04;13.30;56.80
51815;DHT22;37874;53.158;6.766;2023-02-28T01:02:30;13.30;56.80
51815;DHT22;37874;53.158;6.766;2023-02-28T01:04:55;13.30;56.80
51815;DHT22;37874;53.158;6.766;2023-02-28T01:07:22;13.30;56.80
51815;DHT22;37874;53.158;6.766;2023-02-28T01:09:48;13.30;56.80
51815;DHT22;37874;53.158;6.766;2023-02-28T01:12:14;13.30;56.80
51815;DHT22;37874;53.158;6.766;2023-02-28T01:14:39;13.30;56.80
51815;DHT22;37874;53.158;6.766;2023-02-28T01:17:05;13.30;57.40
51815;DHT22;37874;53.158;6.766;2023-02-28T01:19:31;13.20;56.80
51815;DHT22;37874;53.158;6.766;2023-02-28T01:21:56;13.30;56.80
51815;DHT22;37874;53.158;6.766;2023-02-28T01:24:22;13.20;56.80
51815;DHT22;37874;53.158;6.766;2023-02-28T01:26:48;13.20;56.70
51815;DHT22;37874;53.158;6.766;2023-02-28T01:29:13;13.20;56.80
51815;DHT22;37874;53.158;6.766;2023-02-28T01:31:40;13.30;56.80
51815;DHT22;37874;53.158;6.766;2023-02-28T01:34:05;13.20;56.90
51815;DHT22;37874;53.158;6.766;2023-02-28T01:36:31;13.50;57.00
51815;DHT22;37874;53.158;6.766;2023-02-28T01:38:57;13.20;56.80
51815;DHT22;37874;53.158;6.766;2023-02-28T01:41:25;13.20;56.90
51815;DHT22;37874;53.158;6.766;2023-02-28T01:46:33;13.20;56.90
51815;DHT22;37874;53.158;6.766;2023-02-28T01:49:12;13.20;56.80
51815;DHT22;37874;53.158;6.766;2023-02-28T01:51:45;13.20;56.80
51815;DHT22;37874;53.158;6.766;2023-02-28T01:54:35;13.20;56.70
51815;DHT22;37874;53.158;6.766;2023-02-28T01:57:06;13.20;56.90
51815;DHT22;37874;53.158;6.766;2023-02-28T01:59:40;13.20;56.90
51815;DHT22;37874;53.158;6.766;2023-02-28T02:02:10;13.20;57.10
51815;DHT22;37874;53.158;6.766;2023-02-28T02:04:56;13.20;57.10
51815;DHT22;37874;53.158;6.766;2023-02-28T02:07:23;13.20;57.10
51815;DHT22;37874;53.158;6.766;2023-02-28T02:09:50;13.20;57.20
51815;DHT22;37874;53.158;6.766;2023-02-28T02:15:19;13.20;57.20
51815;DHT22;37874;53.158;6.766;2023-02-28T02:17:52;13.20;57.20
51815;DHT22;37874;53.158;6.766;2023-02-28T02:23:55;13.20;57.10
51815;DHT22;37874;53.158;6.766;2023-02-28T02:34:25;13.20;57.10
51815;DHT22;37874;53.158;6.766;2023-02-28T02:39:49;13.20;57.10
51815;DHT22;37874;53.158;6.766;2023-02-28T02:42:23;13.20;57.10
51815;DHT22;37874;53.158;6.766;2023-02-28T02:44:58;13.20;57.10
51815;DHT22;37874;53.158;6.766;2023-02-28T02:47:27;13.20;57.10
51815;DHT22;37874;53.158;6.766;2023-02-28T02:49:57;13.50;57.30
51815;DHT22;37874;53.158;6.766;2023-02-28T02:52:32;13.20;57.10
51815;DHT22;37874;53.158;6.766;2023-02-28T02:55:00;13.20;57.10
51815;DHT22;37874;53.158;6.766;2023-02-28T02:57:33;13.20;57.10
51815;DHT22;37874;53.158;6.766;2023-02-28T03:00:02;13.20;57.70
51815;DHT22;37874;53.158;6.766;2023-02-28T03:02:30;13.20;57.10
51815;DHT22;37874;53.158;6.766;2023-02-28T03:05:02;13.20;57.10
51815;DHT22;37874;53.158;6.766;2023-02-28T03:07:29;13.20;57.10
51815;DHT22;37874;53.158;6.766;2023-02-28T03:09:56;13.50;57.30
51815;DHT22;37874;53.158;6.766;2023-02-28T03:12:46;13.20;57.10
51815;DHT22;37874;53.158;6.766;2023-02-28T03:15:17;13.20;57.10
51815;DHT22;37874;53.158;6.766;2023-02-28T03:18:10;13.20;57.10
51815;DHT22;37874;53.158;6.766;2023-02-28T03:20:41;13.10;57.10
51815;DHT22;37874;53.158;6.766;2023-02-28T03:23:12;13.20;57.10
51815;DHT22;37874;53.158;6.766;2023-02-28T03:25:56;13.10;57.10
51815;DHT22;37874;53.158;6.766;2023-02-28T03:28:26;13.10;57.00
51815;DHT22;37874;53.158;6.766;2023-02-28T03:30:59;13.10;57.10
51815;DHT22;37874;53.158;6.766;2023-02-28T03:33:39;13.10;57.10
51815;DHT22;37874;53.158;6.766;2023-02-28T03:36:18;13.10;57.00
51815;DHT22;37874;53.158;6.766;2023-02-28T03:42:00;13.10;57.60
51815;DHT22;37874;53.158;6.766;2023-02-28T03:44:32;13.10;57.00
51815;DHT22;37874;53.158;6.766;2023-02-28T03:47:03;13.10;57.10
51815;DHT22;37874;53.158;6.766;2023-02-28T03:49:40;13.10;57.10
51815;DHT22;37874;53.158;6.766;2023-02-28T03:52:09;13.10;57.10
51815;DHT22;37874;53.158;6.766;2023-02-28T03:54:44;13.10;57.10
51815;DHT22;37874;53.158;6.766;2023-02-28T03:57:18;13.10;57.00
51815;DHT22;37874;53.158;6.766;2023-02-28T03:59:59;13.10;57.00
51815;DHT22;37874;53.158;6.766;2023-02-28T04:02:26;13.10;57.10
51815;DHT22;37874;53.158;6.766;2023-02-28T04:04:52;13.10;57.00
51815;DHT22;37874;53.158;6.766;2023-02-28T04:07:19;13.10;57.00
51815;DHT22;37874;53.158;6.766;2023-02-28T04:09:44;13.10;57.10
51815;DHT22;37874;53.158;6.766;2023-02-28T04:12:10;13.10;57.00
51815;DHT22;37874;53.158;6.766;2023-02-28T04:14:36;13.10;57.00
51815;DHT22;37874;53.158;6.766;2023-02-28T04:17:01;13.10;57.00
51815;DHT22;37874;53.158;6.766;2023-02-28T04:19:27;13.10;57.00
51815;DHT22;37874;53.158;6.766;2023-02-28T04:21:53;12.40;56.70
51815;DHT22;37874;53.158;6.766;2023-02-28T04:24:24;13.40;57.20
51815;DHT22;37874;53.158;6.766;2023-02-28T04:26:53;13.10;57.20
51815;DHT22;37874;53.158;6.766;2023-02-28T04:29:25;13.10;57.10
51815;DHT22;37874;53.158;6.766;2023-02-28T04:31:51;13.00;57.20
51815;DHT22;37874;53.158;6.766;2023-02-28T04:34:18;13.10;57.20
51815;DHT22;37874;53.158;6.766;2023-02-28T04:36:45;13.00;57.20
51815;DHT22;37874;53.158;6.766;2023-02-28T04:39:11;13.00;57.20
51815;DHT22;37874;53.158;6.766;2023-02-28T04:41:37;13.00;57.20
51815;DHT22;37874;53.158;6.766;2023-02-28T04:44:03;13.00;57.00
51815;DHT22;37874;53.158;6.766;2023-02-28T04:46:28;13.10;57.20
51815;DHT22;37874;53.158;6.766;2023-02-28T04:48:55;13.00;57.20
51815;DHT22;37874;53.158;6.766;2023-02-28T04:51:21;13.00;57.30
51815;DHT22;37874;53.158;6.766;2023-02-28T04:53:48;13.00;57.30
51815;DHT22;37874;53.158;6.766;2023-02-28T04:56:16;13.00;57.30
51815;DHT22;37874;53.158;6.766;2023-02-28T04:58:41;13.00;57.30
51815;DHT22;37874;53.158;6.766;2023-02-28T05:01:26;13.00;57.20
51815;DHT22;37874;53.158;6.766;2023-02-28T05:03:53;13.00;57.30
51815;DHT22;37874;53.158;6.766;2023-02-28T05:06:20;13.00;57.20
51815;DHT22;37874;53.158;6.766;2023-02-28T05:08:46;13.00;57.20
51815;DHT22;37874;53.158;6.766;2023-02-28T05:11:18;13.00;57.20
51815;DHT22;37874;53.158;6.766;2023-02-28T05:13:45;13.00;57.30
51815;DHT22;37874;53.158;6.766;2023-02-28T05:16:11;13.00;57.30
51815;DHT22;37874;53.158;6.766;2023-02-28T05:18:37;13.00;57.40
51815;DHT22;37874;53.158;6.766;2023-02-28T05:21:03;13.00;57.40
51815;DHT22;37874;53.158;6.766;2023-02-28T05:23:29;13.00;57.50
51815;DHT22;37874;53.158;6.766;2023-02-28T05:25:54;13.00;57.40
51815;DHT22;37874;53.158;6.766;2023-02-28T05:28:20;13.00;57.50
51815;DHT22;37874;53.158;6.766;2023-02-28T05:30:46;13.00;57.50
51815;DHT22;37874;53.158;6.766;2023-02-28T05:33:13;13.00;57.50
51815;DHT22;37874;53.158;6.766;2023-02-28T05:35:42;13.00;57.50
51815;DHT22;37874;53.158;6.766;2023-02-28T05:38:10;13.00;57.50
51815;DHT22;37874;53.158;6.766;2023-02-28T05:40:38;13.00;57.50
51815;DHT22;37874;53.158;6.766;2023-02-28T05:43:05;12.90;57.40
51815;DHT22;37874;53.158;6.766;2023-02-28T05:45:30;12.90;57.40
51815;DHT22;37874;53.158;6.766;2023-02-28T05:47:56;12.90;57.40
51815;DHT22;37874;53.158;6.766;2023-02-28T05:50:21;12.90;57.50
51815;DHT22;37874;53.158;6.766;2023-02-28T05:52:51;12.90;57.50
51815;DHT22;37874;53.158;6.766;2023-02-28T05:55:17;12.90;57.50
51815;DHT22;37874;53.158;6.766;2023-02-28T05:57:43;13.00;57.40
51815;DHT22;37874;53.158;6.766;2023-02-28T06:00:10;12.90;57.40
51815;DHT22;37874;53.158;6.766;2023-02-28T06:02:36;12.90;57.40
51815;DHT22;37874;53.158;6.766;2023-02-28T06:05:01;12.90;57.40
51815;DHT22;37874;53.158;6.766;2023-02-28T06:07:27;12.90;57.30
51815;DHT22;37874;53.158;6.766;2023-02-28T06:09:53;12.90;57.50
51815;DHT22;37874;53.158;6.766;2023-02-28T06:12:18;12.90;57.40
51815;DHT22;37874;53.158;6.766;2023-02-28T06:14:44;12.90;57.50
51815;DHT22;37874;53.158;6.766;2023-02-28T06:17:10;12.90;57.40
51815;DHT22;37874;53.158;6.766;2023-02-28T06:19:37;12.90;58.00
51815;DHT22;37874;53.158;6.766;2023-02-28T06:22:04;12.90;58.00
51815;DHT22;37874;53.158;6.766;2023-02-28T06:24:30;12.90;57.50
51815;DHT22;37874;53.158;6.766;2023-02-28T06:26:57;12.90;57.40
51815;DHT22;37874;53.158;6.766;2023-02-28T06:29:24;12.90;57.40
51815;DHT22;37874;53.158;6.766;2023-02-28T06:31:50;12.90;57.50
51815;DHT22;37874;53.158;6.766;2023-02-28T06:34:16;12.90;57.50
51815;DHT22;37874;53.158;6.766;2023-02-28T06:36:43;12.90;57.50
51815;DHT22;37874;53.158;6.766;2023-02-28T06:39:09;12.90;57.50
51815;DHT22;37874;53.158;6.766;2023-02-28T06:41:35;12.90;57.30
51815;DHT22;37874;53.158;6.766;2023-02-28T06:44:10;13.20;57.60
51815;DHT22;37874;53.158;6.766;2023-02-28T06:46:36;12.90;57.40
51815;DHT22;37874;53.158;6.766;2023-02-28T06:49:03;12.90;57.30
51815;DHT22;37874;53.158;6.766;2023-02-28T06:51:29;12.80;57.40
51815;DHT22;37874;53.158;6.766;2023-02-28T06:53:54;13.30;57.60
51815;DHT22;37874;53.158;6.766;2023-02-28T06:56:20;12.90;57.40
51815;DHT22;37874;53.158;6.766;2023-02-28T06:58:47;12.90;57.70
51815;DHT22;37874;53.158;6.766;2023-02-28T07:01:14;12.90;57.40
51815;DHT22;37874;53.158;6.766;2023-02-28T07:03:39;12.80;57.30
51815;DHT22;37874;53.158;6.766;2023-02-28T07:06:06;12.90;57.80
51815;DHT22;37874;53.158;6.766;2023-02-28T07:08:32;12.90;57.30
51815;DHT22;37874;53.158;6.766;2023-02-28T07:10:58;12.90;57.40
51815;DHT22;37874;53.158;6.766;2023-02-28T07:13:24;12.90;57.30
51815;DHT22;37874;53.158;6.766;2023-02-28T07:18:19;12.80;57.30
51815;DHT22;37874;53.158;6.766;2023-02-28T07:20:45;12.90;57.20
51815;DHT22;37874;53.158;6.766;2023-02-28T07:23:10;12.90;57.30
51815;DHT22;37874;53.158;6.766;2023-02-28T07:25:36;12.90;57.30
51815;DHT22;37874;53.158;6.766;2023-02-28T07:28:01;12.90;57.40
51815;DHT22;37874;53.158;6.766;2023-02-28T07:30:27;12.90;57.20
51815;DHT22;37874;53.158;6.766;2023-02-28T07:32:52;12.90;57.20
51815;DHT22;37874;53.158;6.766;2023-02-28T07:35:20;12.80;57.30
51815;DHT22;37874;53.158;6.766;2023-02-28T07:37:45;12.90;57.30
51815;DHT22;37874;53.158;6.766;2023-02-28T07:40:15;12.80;57.30
51815;DHT22;37874;53.158;6.766;2023-02-28T07:42:43;12.90;57.20
51815;DHT22;37874;53.158;6.766;2023-02-28T07:45:10;12.90;57.40
51815;DHT22;37874;53.158;6.766;2023-02-28T07:47:41;12.90;57.00
51815;DHT22;37874;53.158;6.766;2023-02-28T07:50:10;12.90;57.10
51815;DHT22;37874;53.158;6.766;2023-02-28T07:52:36;12.90;57.10
51815;DHT22;37874;53.158;6.766;2023-02-28T07:55:03;12.90;57.30
51815;DHT22;37874;53.158;6.766;2023-02-28T07:57:30;12.90;57.20
51815;DHT22;37874;53.158;6.766;2023-02-28T07:59:55;12.90;57.30
51815;DHT22;37874;53.158;6.766;2023-02-28T08:02:21;12.90;57.30
51815;DHT22;37874;53.158;6.766;2023-02-28T08:04:47;12.90;57.20
51815;DHT22;37874;53.158;6.766;2023-02-28T08:07:13;13.00;57.20
51815;DHT22;37874;53.158;6.766;2023-02-28T08:09:40;12.90;57.00
51815;DHT22;37874;53.158;6.766;2023-02-28T08:12:06;12.90;57.00
51815;DHT22;37874;53.158;6.766;2023-02-28T08:14:32;12.90;57.00
51815;DHT22;37874;53.158;6.766;2023-02-28T08:16:58;13.00;57.00
51815;DHT22;37874;53.158;6.766;2023-02-28T08:19:24;13.00;57.00
51815;DHT22;37874;53.158;6.766;2023-02-28T08:21:49;13.00;57.00
51815;DHT22;37874;53.158;6.766;2023-02-28T08:24:15;13.10;57.00
51815;DHT22;37874;53.158;6.766;2023-02-28T08:26:40;13.10;57.00
51815;DHT22;37874;53.158;6.766;2023-02-28T08:29:06;13.00;57.00
51815;DHT22;37874;53.158;6.766;2023-02-28T08:31:32;13.10;57.10
51815;DHT22;37874;53.158;6.766;2023-02-28T08:33:57;13.10;57.00
51815;DHT22;37874;53.158;6.766;2023-02-28T08:36:25;13.20;57.10
51815;DHT22;37874;53.158;6.766;2023-02-28T08:38:53;13.10;57.00
51815;DHT22;37874;53.158;6.766;2023-02-28T08:41:19;13.10;57.00
51815;DHT22;37874;53.158;6.766;2023-02-28T08:43:44;13.10;57.00
51815;DHT22;37874;53.158;6.766;2023-02-28T08:46:13;13.10;57.10
51815;DHT22;37874;53.158;6.766;2023-02-28T08:48:40;13.10;57.00
51815;DHT22;37874;53.158;6.766;2023-02-28T08:51:11;13.10;57.00
51815;DHT22;37874;53.158;6.766;2023-02-28T08:53:37;13.20;56.80
51815;DHT22;37874;53.158;6.766;2023-02-28T08:56:11;13.20;56.80
51815;DHT22;37874;53.158;6.766;2023-02-28T08:58:37;13.20;56.70
51815;DHT22;37874;53.158;6.766;2023-02-28T09:01:14;13.20;56.70
51815;DHT22;37874;53.158;6.766;2023-02-28T09:03:40;13.20;56.70
51815;DHT22;37874;53.158;6.766;2023-02-28T09:06:07;13.20;56.80
51815;DHT22;37874;53.158;6.766;2023-02-28T09:08:33;13.20;57.20
51815;DHT22;37874;53.158;6.766;2023-02-28T09:10:59;13.20;56.70
51815;DHT22;37874;53.158;6.766;2023-02-28T09:13:26;13.20;56.60
51815;DHT22;37874;53.158;6.766;2023-02-28T09:15:52;13.10;56.60
51815;DHT22;37874;53.158;6.766;2023-02-28T09:18:18;13.20;56.70
51815;DHT22;37874;53.158;6.766;2023-02-28T09:20:44;13.20;56.60
51815;DHT22;37874;53.158;6.766;2023-02-28T09:23:12;13.20;56.70
51815;DHT22;37874;53.158;6.766;2023-02-28T09:25:38;13.20;56.70
51815;DHT22;37874;53.158;6.766;2023-02-28T09:28:09;13.20;56.70
51815;DHT22;37874;53.158;6.766;2023-02-28T09:30:35;13.20;56.50
51815;DHT22;37874;53.158;6.766;2023-02-28T09:33:00;13.20;56.70
51815;DHT22;37874;53.158;6.766;2023-02-28T09:35:26;13.20;56.70
51815;DHT22;37874;53.158;6.766;2023-02-28T09:37:52;13.20;56.70
51815;DHT22;37874;53.158;6.766;2023-02-28T09:40:22;13.20;56.60
51815;DHT22;37874;53.158;6.766;2023-02-28T09:42:51;13.20;56.70
51815;DHT22;37874;53.158;6.766;2023-02-28T09:45:32;13.20;56.90
51815;DHT22;37874;53.158;6.766;2023-02-28T09:48:01;13.20;56.70
51815;DHT22;37874;53.158;6.766;2023-02-28T09:50:36;13.20;56.80
51815;DHT22;37874;53.158;6.766;2023-02-28T09:53:10;13.20;56.90
51815;DHT22;37874;53.158;6.766;2023-02-28T09:55:44;13.20;56.90
51815;DHT22;37874;53.158;6.766;2023-02-28T09:58:23;13.20;56.80
51815;DHT22;37874;53.158;6.766;2023-02-28T10:06:37;13.20;57.00
51815;DHT22;37874;53.158;6.766;2023-02-28T10:09:15;13.20;56.90
51815;DHT22;37874;53.158;6.766;2023-02-28T10:11:44;13.20;57.10
51815;DHT22;37874;53.158;6.766;2023-02-28T10:14:17;13.20;56.80
51815;DHT22;37874;53.158;6.766;2023-02-28T10:19:24;13.20;57.10
51815;DHT22;37874;53.158;6.766;2023-02-28T10:22:14;13.20;56.60
51815;DHT22;37874;53.158;6.766;2023-02-28T10:24:45;13.20;56.70
51815;DHT22;37874;53.158;6.766;2023-02-28T10:29:43;13.30;57.00
51815;DHT22;37874;53.158;6.766;2023-02-28T10:32:12;13.30;57.10
51815;DHT22;37874;53.158;6.766;2023-02-28T10:34:39;13.30;57.20
51815;DHT22;37874;53.158;6.766;2023-02-28T10:37:05;13.30;56.80
51815;DHT22;37874;53.158;6.766;2023-02-28T10:39:40;13.30;57.10
51815;DHT22;37874;53.158;6.766;2023-02-28T10:42:19;13.30;56.80
51815;DHT22;37874;53.158;6.766;2023-02-28T10:44:45;13.30;56.90
51815;DHT22;37874;53.158;6.766;2023-02-28T10:47:15;13.30;56.80
51815;DHT22;37874;53.158;6.766;2023-02-28T10:49:47;13.40;56.80
51815;DHT22;37874;53.158;6.766;2023-02-28T10:52:13;13.40;56.90
51815;DHT22;37874;53.158;6.766;2023-02-28T10:54:39;13.40;56.90
51815;DHT22;37874;53.158;6.766;2023-02-28T10:57:21;13.40;56.90
51815;DHT22;37874;53.158;6.766;2023-02-28T10:59:51;13.40;56.90
51815;DHT22;37874;53.158;6.766;2023-02-28T11:02:37;13.40;56.90
51815;DHT22;37874;53.158;6.766;2023-02-28T11:05:30;13.40;56.80
51815;DHT22;37874;53.158;6.766;2023-02-28T11:10:32;13.40;56.80
51815;DHT22;37874;53.158;6.766;2023-02-28T11:13:00;13.50;56.90
51815;DHT22;37874;53.158;6.766;2023-02-28T11:15:31;13.50;56.60
51815;DHT22;37874;53.158;6.766;2023-02-28T11:21:04;13.50;56.70
51815;DHT22;37874;53.158;6.766;2023-02-28T11:23:33;13.70;56.60
51815;DHT22;37874;53.158;6.766;2023-02-28T11:26:02;13.80;56.20
51815;DHT22;37874;53.158;6.766;2023-02-28T11:28:31;14.00;55.70
51815;DHT22;37874;53.158;6.766;2023-02-28T11:33:54;14.40;55.00
51815;DHT22;37874;53.158;6.766;2023-02-28T11:36:27;14.60;54.50
51815;DHT22;37874;53.158;6.766;2023-02-28T11:38:54;14.80;54.30
51815;DHT22;37874;53.158;6.766;2023-02-28T11:49:26;14.90;54.10
51815;DHT22;37874;53.158;6.766;2023-02-28T11:57:44;15.40;53.30
51815;DHT22;37874;53.158;6.766;2023-02-28T12:05:40;15.60;52.20
51815;DHT22;37874;53.158;6.766;2023-02-28T12:13:45;15.80;51.70
51815;DHT22;37874;53.158;6.766;2023-02-28T12:24:36;15.80;51.40
51815;DHT22;37874;53.158;6.766;2023-02-28T12:27:07;15.70;51.60
51815;DHT22;37874;53.158;6.766;2023-02-28T12:29:56;15.50;51.80
51815;DHT22;37874;53.158;6.766;2023-02-28T12:35:17;15.30;52.60
51815;DHT22;37874;53.158;6.766;2023-02-28T12:37:55;15.20;52.80
51815;DHT22;37874;53.158;6.766;2023-02-28T12:40:25;15.10;53.10
51815;DHT22;37874;53.158;6.766;2023-02-28T12:42:56;15.10;53.20
51815;DHT22;37874;53.158;6.766;2023-02-28T12:45:25;15.00;53.30
51815;DHT22;37874;53.158;6.766;2023-02-28T12:48:00;15.30;53.60
51815;DHT22;37874;53.158;6.766;2023-02-28T12:50:28;15.00;53.60
51815;DHT22;37874;53.158;6.766;2023-02-28T12:53:03;15.00;53.70
51815;DHT22;37874;53.158;6.766;2023-02-28T12:55:54;14.90;53.80
51815;DHT22;37874;53.158;6.766;2023-02-28T12:58:39;14.90;53.80
51815;DHT22;37874;53.158;6.766;2023-02-28T13:07:13;14.90;54.00
51815;DHT22;37874;53.158;6.766;2023-02-28T13:09:56;14.90;54.10
51815;DHT22;37874;53.158;6.766;2023-02-28T13:12:22;15.00;54.10
51815;DHT22;37874;53.158;6.766;2023-02-28T13:14:49;15.00;54.00
51815;DHT22;37874;53.158;6.766;2023-02-28T13:17:20;15.10;54.00
51815;DHT22;37874;53.158;6.766;2023-02-28T13:20:14;15.10;53.90
51815;DHT22;37874;53.158;6.766;2023-02-28T13:22:46;15.10;53.90
51815;DHT22;37874;53.158;6.766;2023-02-28T13:28:11;15.10;54.00
51815;DHT22;37874;53.158;6.766;2023-02-28T13:33:29;15.10;54.00
51815;DHT22;37874;53.158;6.766;2023-02-28T13:38:41;15.20;54.00
51815;DHT22;37874;53.158;6.766;2023-02-28T13:41:40;15.20;54.40
51815;DHT22;37874;53.158;6.766;2023-02-28T13:46:38;15.30;53.80
51815;DHT22;37874;53.158;6.766;2023-02-28T13:49:32;15.30;53.70
51815;DHT22;37874;53.158;6.766;2023-02-28T13:52:20;15.30;53.70
51815;DHT22;37874;53.158;6.766;2023-02-28T13:57:42;15.30;53.70
51815;DHT22;37874;53.158;6.766;2023-02-28T14:00:30;15.30;53.70
51815;DHT22;37874;53.158;6.766;2023-02-28T14:05:34;15.40;53.70
51815;DHT22;37874;53.158;6.766;2023-02-28T14:08:06;15.50;53.60
51815;DHT22;37874;53.158;6.766;2023-02-28T14:10:46;15.50;53.30
51815;DHT22;37874;53.158;6.766;2023-02-28T14:16:10;15.70;53.20
51815;DHT22;37874;53.158;6.766;2023-02-28T14:18:41;15.80;52.90
51815;DHT22;37874;53.158;6.766;2023-02-28T14:35:03;16.60;51.10
51815;DHT22;37874;53.158;6.766;2023-02-28T14:37:34;16.80;50.80
51815;DHT22;37874;53.158;6.766;2023-02-28T14:40:04;16.90;50.50
51815;DHT22;37874;53.158;6.766;2023-02-28T14:42:37;17.00;50.10
51815;DHT22;37874;53.158;6.766;2023-02-28T14:45:22;17.00;50.10
51815;DHT22;37874;53.158;6.766;2023-02-28T14:47:50;16.90;50.30
51815;DHT22;37874;53.158;6.766;2023-02-28T14:50:22;16.80;50.30
51815;DHT22;37874;53.158;6.766;2023-02-28T14:52:52;16.60;50.60
51815;DHT22;37874;53.158;6.766;2023-02-28T14:55:29;16.50;50.90
51815;DHT22;37874;53.158;6.766;2023-02-28T14:58:03;16.40;51.20
51815;DHT22;37874;53.158;6.766;2023-02-28T15:00:34;16.40;51.40
51815;DHT22;37874;53.158;6.766;2023-02-28T15:03:11;16.50;51.40
51815;DHT22;37874;53.158;6.766;2023-02-28T15:05:42;16.70;51.20
51815;DHT22;37874;53.158;6.766;2023-02-28T15:08:17;16.90;50.90
51815;DHT22;37874;53.158;6.766;2023-02-28T15:10:50;17.10;50.50
51815;DHT22;37874;53.158;6.766;2023-02-28T15:13:17;17.20;50.20
51815;DHT22;37874;53.158;6.766;2023-02-28T15:18:36;17.40;49.50
51815;DHT22;37874;53.158;6.766;2023-02-28T15:21:07;17.60;49.20
51815;DHT22;37874;53.158;6.766;2023-02-28T15:23:36;17.70;49.00
51815;DHT22;37874;53.158;6.766;2023-02-28T15:26:03;17.70;48.80
51815;DHT22;37874;53.158;6.766;2023-02-28T15:28:30;17.80;48.70
51815;DHT22;37874;53.158;6.766;2023-02-28T15:30:57;17.90;48.60
51815;DHT22;37874;53.158;6.766;2023-02-28T15:33:28;17.90;48.60
51815;DHT22;37874;53.158;6.766;2023-02-28T15:36:13;18.00;48.50
51815;DHT22;37874;53.158;6.766;2023-02-28T15:38:39;17.90;48.50
51815;DHT22;37874;53.158;6.766;2023-02-28T15:41:05;18.00;48.50
51815;DHT22;37874;53.158;6.766;2023-02-28T15:43:38;18.00;48.50
51815;DHT22;37874;53.158;6.766;2023-02-28T15:46:06;18.00;48.50
51815;DHT22;37874;53.158;6.766;2023-02-28T15:48:35;18.00;48.50
51815;DHT22;37874;53.158;6.766;2023-02-28T15:54:07;18.00;48.60
51815;DHT22;37874;53.158;6.766;2023-02-28T15:56:42;17.90;48.50
51815;DHT22;37874;53.158;6.766;2023-02-28T15:59:27;18.00;48.60
51815;DHT22;37874;53.158;6.766;2023-02-28T16:02:16;18.00;48.60
51815;DHT22;37874;53.158;6.766;2023-02-28T16:07:39;18.00;48.60
51815;DHT22;37874;53.158;6.766;2023-02-28T16:10:07;18.10;48.70
51815;DHT22;37874;53.158;6.766;2023-02-28T16:12:35;18.00;48.50
51815;DHT22;37874;53.158;6.766;2023-02-28T16:15:19;18.00;48.70
51815;DHT22;37874;53.158;6.766;2023-02-28T16:17:45;18.00;48.70
51815;DHT22;37874;53.158;6.766;2023-02-28T16:20:19;17.90;48.80
51815;DHT22;37874;53.158;6.766;2023-02-28T16:22:45;17.90;48.80
51815;DHT22;37874;53.158;6.766;2023-02-28T16:25:17;17.90;49.00
51815;DHT22;37874;53.158;6.766;2023-02-28T16:27:45;17.80;49.10
51815;DHT22;37874;53.158;6.766;2023-02-28T16:30:21;17.80;49.30
51815;DHT22;37874;53.158;6.766;2023-02-28T16:32:49;17.70;49.40
51815;DHT22;37874;53.158;6.766;2023-02-28T16:35:15;17.60;49.70
51815;DHT22;37874;53.158;6.766;2023-02-28T16:37:41;17.50;49.80
51815;DHT22;37874;53.158;6.766;2023-02-28T16:40:20;17.30;49.90
51815;DHT22;37874;53.158;6.766;2023-02-28T16:42:48;17.70;50.50
51815;DHT22;37874;53.158;6.766;2023-02-28T16:45:23;16.80;50.30
51815;DHT22;37874;53.158;6.766;2023-02-28T16:47:50;17.00;50.80
51815;DHT22;37874;53.158;6.766;2023-02-28T16:50:24;16.90;51.10
51815;DHT22;37874;53.158;6.766;2023-02-28T16:52:50;16.70;51.30
51815;DHT22;37874;53.158;6.766;2023-02-28T16:55:18;16.70;51.70
51815;DHT22;37874;53.158;6.766;2023-02-28T16:57:44;16.50;51.80
51815;DHT22;37874;53.158;6.766;2023-02-28T17:00:13;16.50;52.20
51815;DHT22;37874;53.158;6.766;2023-02-28T17:02:39;16.40;52.30
51815;DHT22;37874;53.158;6.766;2023-02-28T17:05:05;16.30;52.60
51815;DHT22;37874;53.158;6.766;2023-02-28T17:07:32;16.20;52.80
51815;DHT22;37874;53.158;6.766;2023-02-28T17:09:58;16.20;53.10
51815;DHT22;37874;53.158;6.766;2023-02-28T17:12:23;16.10;53.10
51815;DHT22;37874;53.158;6.766;2023-02-28T17:14:49;16.00;53.40
51815;DHT22;37874;53.158;6.766;2023-02-28T17:17:18;16.00;53.60
51815;DHT22;37874;53.158;6.766;2023-02-28T17:19:45;15.90;53.80
51815;DHT22;37874;53.158;6.766;2023-02-28T17:22:10;15.90;53.80
51815;DHT22;37874;53.158;6.766;2023-02-28T17:24:36;15.80;53.90
51815;DHT22;37874;53.158;6.766;2023-02-28T17:27:02;15.80;54.10
51815;DHT22;37874;53.158;6.766;2023-02-28T17:29:28;15.80;54.30
51815;DHT22;37874;53.158;6.766;2023-02-28T17:31:54;15.70;54.30
51815;DHT22;37874;53.158;6.766;2023-02-28T17:34:21;15.70;54.60
51815;DHT22;37874;53.158;6.766;2023-02-28T17:36:49;15.70;54.90
51815;DHT22;37874;53.158;6.766;2023-02-28T17:39:16;15.60;54.80
51815;DHT22;37874;53.158;6.766;2023-02-28T17:41:53;15.50;54.70
51815;DHT22;37874;53.158;6.766;2023-02-28T17:44:20;15.50;54.80
51815;DHT22;37874;53.158;6.766;2023-02-28T17:46:46;15.40;54.80
51815;DHT22;37874;53.158;6.766;2023-02-28T17:49:12;15.40;54.80
51815;DHT22;37874;53.158;6.766;2023-02-28T17:51:38;15.40;55.00
51815;DHT22;37874;53.158;6.766;2023-02-28T17:54:03;15.40;55.00